sensor_id;sensor_type;location;lat;lon;timestamp;P1;durP1;ratioP1;P2;durP2;ratioP2
62572;SDS011;48626;51.678;5.806;2023-04-03T00:00:53;10.30;;;5.00;;
62572;SDS011;48626;51.678;5.806;2023-04-03T00:03:19;10.65;;;5.00;;
62572;SDS011;48626;51.678;5.806;2023-04-03T00:05:45;9.27;;;4.80;;
62572;SDS011;48626;51.678;5.806;2023-04-03T00:08:11;9.82;;;5.00;;
62572;SDS011;48626;51.678;5.806;2023-04-03T00:10:37;9.25;;;4.93;;
62572;SDS011;48626;51.678;5.806;2023-04-03T00:13:03;9.80;;;5.03;;
62572;SDS011;48626;51.678;5.806;2023-04-03T00:15:31;6.47;;;4.68;;
62572;SDS011;48626;51.678;5.806;2023-04-03T00:17:56;8.95;;;4.65;;
62572;SDS011;48626;51.678;5.806;2023-04-03T00:20:22;8.02;;;4.60;;
62572;SDS011;48626;51.678;5.806;2023-04-03T00:22:48;6.47;;;4.80;;
62572;SDS011;48626;51.678;5.806;2023-04-03T00:25:15;10.02;;;5.63;;
62572;SDS011;48626;51.678;5.806;2023-04-03T00:27:41;6.63;;;4.70;;
62572;SDS011;48626;51.678;5.806;2023-04-03T00:30:07;9.93;;;5.00;;
62572;SDS011;48626;51.678;5.806;2023-04-03T00:32:35;10.95;;;5.40;;
62572;SDS011;48626;51.678;5.806;2023-04-03T00:35:00;9.52;;;5.22;;
62572;SDS011;48626;51.678;5.806;2023-04-03T00:37:26;8.00;;;4.53;;
62572;SDS011;48626;51.678;5.806;2023-04-03T00:39:51;7.80;;;4.70;;
62572;SDS011;48626;51.678;5.806;2023-04-03T00:42:17;7.97;;;4.53;;
62572;SDS011;48626;51.678;5.806;2023-04-03T00:47:11;8.95;;;4.55;;
62572;SDS011;48626;51.678;5.806;2023-04-03T00:49:38;9.30;;;5.00;;
62572;SDS011;48626;51.678;5.806;2023-04-03T00:52:05;8.82;;;4.93;;
62572;SDS011;48626;51.678;5.806;2023-04-03T00:54:37;6.72;;;4.40;;
62572;SDS011;48626;51.678;5.806;2023-04-03T00:57:05;8.88;;;4.78;;
62572;SDS011;48626;51.678;5.806;2023-04-03T00:59:33;10.75;;;4.60;;
62572;SDS011;48626;51.678;5.806;2023-04-03T01:02:02;7.75;;;4.50;;
62572;SDS011;48626;51.678;5.806;2023-04-03T01:04:33;8.70;;;4.50;;
62572;SDS011;48626;51.678;5.806;2023-04-03T01:07:05;9.18;;;4.22;;
62572;SDS011;48626;51.678;5.806;2023-04-03T01:09:34;6.43;;;4.25;;
62572;SDS011;48626;51.678;5.806;2023-04-03T01:15:08;8.25;;;3.97;;
62572;SDS011;48626;51.678;5.806;2023-04-03T01:22:49;9.70;;;4.13;;
62572;SDS011;48626;51.678;5.806;2023-04-03T01:25:26;8.20;;;4.80;;
62572;SDS011;48626;51.678;5.806;2023-04-03T01:27:52;9.27;;;4.65;;
62572;SDS011;48626;51.678;5.806;2023-04-03T01:30:18;5.97;;;3.95;;
62572;SDS011;48626;51.678;5.806;2023-04-03T01:32:46;8.32;;;4.40;;
62572;SDS011;48626;51.678;5.806;2023-04-03T01:35:12;7.38;;;4.30;;
62572;SDS011;48626;51.678;5.806;2023-04-03T01:37:38;8.13;;;4.10;;
62572;SDS011;48626;51.678;5.806;2023-04-03T01:40:04;8.73;;;4.00;;
62572;SDS011;48626;51.678;5.806;2023-04-03T01:42:30;7.60;;;3.63;;
62572;SDS011;48626;51.678;5.806;2023-04-03T01:44:56;7.97;;;4.20;;
62572;SDS011;48626;51.678;5.806;2023-04-03T01:47:22;10.30;;;4.53;;
62572;SDS011;48626;51.678;5.806;2023-04-03T01:49:47;8.75;;;4.00;;
62572;SDS011;48626;51.678;5.806;2023-04-03T01:52:13;13.98;;;4.75;;
62572;SDS011;48626;51.678;5.806;2023-04-03T01:54:39;8.48;;;3.63;;
62572;SDS011;48626;51.678;5.806;2023-04-03T01:57:05;6.20;;;3.88;;
62572;SDS011;48626;51.678;5.806;2023-04-03T01:59:30;8.77;;;3.78;;
62572;SDS011;48626;51.678;5.806;2023-04-03T02:01:57;9.38;;;4.00;;
62572;SDS011;48626;51.678;5.806;2023-04-03T02:04:22;7.63;;;4.35;;
62572;SDS011;48626;51.678;5.806;2023-04-03T02:06:48;7.15;;;3.40;;
62572;SDS011;48626;51.678;5.806;2023-04-03T02:09:14;7.32;;;3.83;;
62572;SDS011;48626;51.678;5.806;2023-04-03T02:11:40;7.25;;;3.47;;
62572;SDS011;48626;51.678;5.806;2023-04-03T02:14:05;9.55;;;3.92;;
62572;SDS011;48626;51.678;5.806;2023-04-03T02:16:31;7.15;;;3.67;;
62572;SDS011;48626;51.678;5.806;2023-04-03T02:18:57;4.88;;;3.60;;
62572;SDS011;48626;51.678;5.806;2023-04-03T02:21:22;6.78;;;3.40;;
62572;SDS011;48626;51.678;5.806;2023-04-03T02:23:48;10.32;;;3.70;;
62572;SDS011;48626;51.678;5.806;2023-04-03T02:26:14;5.18;;;3.03;;
62572;SDS011;48626;51.678;5.806;2023-04-03T02:28:41;8.43;;;3.33;;
62572;SDS011;48626;51.678;5.806;2023-04-03T02:31:07;6.00;;;3.10;;
62572;SDS011;48626;51.678;5.806;2023-04-03T02:33:34;8.07;;;3.30;;
62572;SDS011;48626;51.678;5.806;2023-04-03T02:36:01;7.93;;;2.95;;
62572;SDS011;48626;51.678;5.806;2023-04-03T02:38:28;7.47;;;3.10;;
62572;SDS011;48626;51.678;5.806;2023-04-03T02:40:59;5.72;;;2.78;;
62572;SDS011;48626;51.678;5.806;2023-04-03T02:43:26;7.93;;;3.03;;
62572;SDS011;48626;51.678;5.806;2023-04-03T02:45:51;8.93;;;3.08;;
62572;SDS011;48626;51.678;5.806;2023-04-03T02:48:17;8.05;;;3.00;;
62572;SDS011;48626;51.678;5.806;2023-04-03T02:50:43;6.55;;;3.10;;
62572;SDS011;48626;51.678;5.806;2023-04-03T02:53:08;5.95;;;2.80;;
62572;SDS011;48626;51.678;5.806;2023-04-03T02:55:34;8.32;;;3.20;;
62572;SDS011;48626;51.678;5.806;2023-04-03T02:58:00;6.53;;;3.03;;
62572;SDS011;48626;51.678;5.806;2023-04-03T03:00:26;6.35;;;2.90;;
62572;SDS011;48626;51.678;5.806;2023-04-03T03:02:51;6.72;;;3.10;;
62572;SDS011;48626;51.678;5.806;2023-04-03T03:05:17;6.63;;;3.13;;
62572;SDS011;48626;51.678;5.806;2023-04-03T03:07:43;7.68;;;2.90;;
62572;SDS011;48626;51.678;5.806;2023-04-03T03:10:08;5.22;;;2.85;;
62572;SDS011;48626;51.678;5.806;2023-04-03T03:12:34;4.85;;;2.83;;
62572;SDS011;48626;51.678;5.806;2023-04-03T03:15:00;5.78;;;3.20;;
62572;SDS011;48626;51.678;5.806;2023-04-03T03:17:26;7.75;;;3.05;;
62572;SDS011;48626;51.678;5.806;2023-04-03T03:19:52;8.38;;;3.17;;
62572;SDS011;48626;51.678;5.806;2023-04-03T03:22:18;5.13;;;2.65;;
62572;SDS011;48626;51.678;5.806;2023-04-03T03:24:44;5.53;;;2.60;;
62572;SDS011;48626;51.678;5.806;2023-04-03T03:27:10;5.35;;;2.83;;
62572;SDS011;48626;51.678;5.806;2023-04-03T03:29:37;8.77;;;3.10;;
62572;SDS011;48626;51.678;5.806;2023-04-03T03:32:02;7.28;;;2.90;;
62572;SDS011;48626;51.678;5.806;2023-04-03T03:34:28;6.28;;;3.15;;
62572;SDS011;48626;51.678;5.806;2023-04-03T03:36:54;6.43;;;2.70;;
62572;SDS011;48626;51.678;5.806;2023-04-03T03:39:20;5.38;;;2.60;;
62572;SDS011;48626;51.678;5.806;2023-04-03T03:41:46;10.98;;;5.32;;
62572;SDS011;48626;51.678;5.806;2023-04-03T03:44:14;6.57;;;3.60;;
62572;SDS011;48626;51.678;5.806;2023-04-03T03:46:40;7.15;;;3.25;;
62572;SDS011;48626;51.678;5.806;2023-04-03T03:49:05;5.50;;;2.63;;
62572;SDS011;48626;51.678;5.806;2023-04-03T03:51:31;7.53;;;2.60;;
62572;SDS011;48626;51.678;5.806;2023-04-03T03:53:57;5.57;;;2.88;;
62572;SDS011;48626;51.678;5.806;2023-04-03T03:56:23;7.75;;;3.10;;
62572;SDS011;48626;51.678;5.806;2023-04-03T03:58:48;7.70;;;3.05;;
62572;SDS011;48626;51.678;5.806;2023-04-03T04:01:14;7.80;;;2.72;;
62572;SDS011;48626;51.678;5.806;2023-04-03T04:03:41;4.85;;;3.13;;
62572;SDS011;48626;51.678;5.806;2023-04-03T04:06:07;9.73;;;3.35;;
62572;SDS011;48626;51.678;5.806;2023-04-03T04:08:33;5.05;;;2.90;;
62572;SDS011;48626;51.678;5.806;2023-04-03T04:10:59;4.72;;;3.03;;
62572;SDS011;48626;51.678;5.806;2023-04-03T04:13:24;11.63;;;2.80;;
62572;SDS011;48626;51.678;5.806;2023-04-03T04:15:50;6.72;;;2.88;;
62572;SDS011;48626;51.678;5.806;2023-04-03T04:18:16;6.93;;;2.92;;
62572;SDS011;48626;51.678;5.806;2023-04-03T04:20:44;7.10;;;2.83;;
62572;SDS011;48626;51.678;5.806;2023-04-03T04:23:10;7.53;;;2.83;;
62572;SDS011;48626;51.678;5.806;2023-04-03T04:25:36;6.15;;;2.70;;
62572;SDS011;48626;51.678;5.806;2023-04-03T04:28:02;7.13;;;2.90;;
62572;SDS011;48626;51.678;5.806;2023-04-03T04:30:27;6.82;;;2.63;;
62572;SDS011;48626;51.678;5.806;2023-04-03T04:32:53;8.13;;;2.80;;
62572;SDS011;48626;51.678;5.806;2023-04-03T04:35:19;3.80;;;2.53;;
62572;SDS011;48626;51.678;5.806;2023-04-03T04:37:44;6.47;;;3.20;;
62572;SDS011;48626;51.678;5.806;2023-04-03T04:40:10;5.53;;;2.70;;
62572;SDS011;48626;51.678;5.806;2023-04-03T04:42:36;4.88;;;2.67;;
62572;SDS011;48626;51.678;5.806;2023-04-03T04:45:02;6.55;;;2.92;;
62572;SDS011;48626;51.678;5.806;2023-04-03T04:47:28;7.45;;;2.97;;
62572;SDS011;48626;51.678;5.806;2023-04-03T04:49:54;5.28;;;2.88;;
62572;SDS011;48626;51.678;5.806;2023-04-03T04:52:20;5.78;;;2.65;;
62572;SDS011;48626;51.678;5.806;2023-04-03T04:54:46;10.68;;;3.03;;
62572;SDS011;48626;51.678;5.806;2023-04-03T04:57:11;4.72;;;2.88;;
62572;SDS011;48626;51.678;5.806;2023-04-03T04:59:37;4.95;;;2.35;;
62572;SDS011;48626;51.678;5.806;2023-04-03T05:02:03;5.25;;;2.60;;
62572;SDS011;48626;51.678;5.806;2023-04-03T05:04:28;6.57;;;2.72;;
62572;SDS011;48626;51.678;5.806;2023-04-03T05:06:54;7.45;;;2.75;;
62572;SDS011;48626;51.678;5.806;2023-04-03T05:09:20;7.45;;;2.88;;
62572;SDS011;48626;51.678;5.806;2023-04-03T05:11:46;9.60;;;2.95;;
62572;SDS011;48626;51.678;5.806;2023-04-03T05:14:12;7.65;;;2.80;;
62572;SDS011;48626;51.678;5.806;2023-04-03T05:16:38;8.85;;;2.90;;
62572;SDS011;48626;51.678;5.806;2023-04-03T05:19:04;7.78;;;2.78;;
62572;SDS011;48626;51.678;5.806;2023-04-03T05:21:30;5.70;;;2.85;;
62572;SDS011;48626;51.678;5.806;2023-04-03T05:24:00;7.25;;;3.08;;
62572;SDS011;48626;51.678;5.806;2023-04-03T05:28:56;9.50;;;2.55;;
62572;SDS011;48626;51.678;5.806;2023-04-03T05:31:22;10.98;;;2.75;;
62572;SDS011;48626;51.678;5.806;2023-04-03T05:33:49;5.65;;;3.00;;
62572;SDS011;48626;51.678;5.806;2023-04-03T05:36:14;8.98;;;3.10;;
62572;SDS011;48626;51.678;5.806;2023-04-03T05:38:41;7.32;;;2.60;;
62572;SDS011;48626;51.678;5.806;2023-04-03T05:41:07;7.93;;;3.80;;
62572;SDS011;48626;51.678;5.806;2023-04-03T05:43:32;5.55;;;2.70;;
62572;SDS011;48626;51.678;5.806;2023-04-03T05:45:59;9.40;;;3.10;;
62572;SDS011;48626;51.678;5.806;2023-04-03T05:48:25;9.20;;;3.42;;
62572;SDS011;48626;51.678;5.806;2023-04-03T05:50:51;6.78;;;3.05;;
62572;SDS011;48626;51.678;5.806;2023-04-03T05:53:25;8.88;;;2.95;;
62572;SDS011;48626;51.678;5.806;2023-04-03T05:55:54;5.63;;;3.00;;
62572;SDS011;48626;51.678;5.806;2023-04-03T05:58:20;5.60;;;2.50;;
62572;SDS011;48626;51.678;5.806;2023-04-03T06:00:45;11.65;;;3.38;;
62572;SDS011;48626;51.678;5.806;2023-04-03T06:03:11;5.57;;;2.70;;
62572;SDS011;48626;51.678;5.806;2023-04-03T06:05:37;5.30;;;2.88;;
62572;SDS011;48626;51.678;5.806;2023-04-03T06:08:03;8.35;;;3.03;;
62572;SDS011;48626;51.678;5.806;2023-04-03T06:10:28;5.30;;;2.92;;
62572;SDS011;48626;51.678;5.806;2023-04-03T06:12:54;8.32;;;2.90;;
62572;SDS011;48626;51.678;5.806;2023-04-03T06:15:20;8.05;;;3.28;;
62572;SDS011;48626;51.678;5.806;2023-04-03T06:17:46;11.55;;;3.15;;
62572;SDS011;48626;51.678;5.806;2023-04-03T06:20:11;6.90;;;3.05;;
62572;SDS011;48626;51.678;5.806;2023-04-03T06:22:38;9.60;;;3.17;;
62572;SDS011;48626;51.678;5.806;2023-04-03T06:25:04;13.40;;;3.10;;
62572;SDS011;48626;51.678;5.806;2023-04-03T06:27:31;10.30;;;3.10;;
62572;SDS011;48626;51.678;5.806;2023-04-03T06:29:56;10.40;;;2.97;;
62572;SDS011;48626;51.678;5.806;2023-04-03T06:32:22;7.70;;;3.30;;
62572;SDS011;48626;51.678;5.806;2023-04-03T06:34:48;8.05;;;2.78;;
62572;SDS011;48626;51.678;5.806;2023-04-03T06:37:17;8.80;;;3.03;;
62572;SDS011;48626;51.678;5.806;2023-04-03T06:39:45;8.05;;;3.00;;
62572;SDS011;48626;51.678;5.806;2023-04-03T06:42:11;7.03;;;2.83;;
62572;SDS011;48626;51.678;5.806;2023-04-03T06:44:37;7.30;;;2.75;;
62572;SDS011;48626;51.678;5.806;2023-04-03T06:47:03;13.05;;;3.67;;
62572;SDS011;48626;51.678;5.806;2023-04-03T06:51:59;9.00;;;3.00;;
62572;SDS011;48626;51.678;5.806;2023-04-03T06:54:24;7.40;;;2.90;;
62572;SDS011;48626;51.678;5.806;2023-04-03T06:56:50;7.15;;;2.88;;
62572;SDS011;48626;51.678;5.806;2023-04-03T06:59:16;7.82;;;3.00;;
62572;SDS011;48626;51.678;5.806;2023-04-03T07:01:42;8.10;;;2.90;;
62572;SDS011;48626;51.678;5.806;2023-04-03T07:04:08;11.10;;;2.95;;
62572;SDS011;48626;51.678;5.806;2023-04-03T07:06:34;12.43;;;2.92;;
62572;SDS011;48626;51.678;5.806;2023-04-03T07:09:00;9.93;;;3.13;;
62572;SDS011;48626;51.678;5.806;2023-04-03T07:11:27;6.38;;;3.30;;
62572;SDS011;48626;51.678;5.806;2023-04-03T07:13:53;4.50;;;2.50;;
62572;SDS011;48626;51.678;5.806;2023-04-03T07:16:19;11.57;;;3.03;;
62572;SDS011;48626;51.678;5.806;2023-04-03T07:18:44;8.68;;;3.40;;
62572;SDS011;48626;51.678;5.806;2023-04-03T07:21:11;6.80;;;2.97;;
62572;SDS011;48626;51.678;5.806;2023-04-03T07:23:37;5.72;;;2.80;;
62572;SDS011;48626;51.678;5.806;2023-04-03T07:26:02;10.82;;;2.85;;
62572;SDS011;48626;51.678;5.806;2023-04-03T07:28:29;10.52;;;2.83;;
62572;SDS011;48626;51.678;5.806;2023-04-03T07:31:03;6.05;;;2.60;;
62572;SDS011;48626;51.678;5.806;2023-04-03T07:33:33;8.50;;;2.75;;
62572;SDS011;48626;51.678;5.806;2023-04-03T07:36:00;7.15;;;2.72;;
62572;SDS011;48626;51.678;5.806;2023-04-03T07:38:26;7.68;;;2.78;;
62572;SDS011;48626;51.678;5.806;2023-04-03T07:40:52;6.25;;;2.58;;
62572;SDS011;48626;51.678;5.806;2023-04-03T07:43:19;9.15;;;2.88;;
62572;SDS011;48626;51.678;5.806;2023-04-03T07:45:46;11.77;;;3.03;;
62572;SDS011;48626;51.678;5.806;2023-04-03T07:48:15;7.05;;;2.80;;
62572;SDS011;48626;51.678;5.806;2023-04-03T07:50:43;5.72;;;2.83;;
62572;SDS011;48626;51.678;5.806;2023-04-03T07:53:09;6.07;;;2.58;;
62572;SDS011;48626;51.678;5.806;2023-04-03T07:55:36;6.88;;;2.72;;
62572;SDS011;48626;51.678;5.806;2023-04-03T07:58:08;6.85;;;2.80;;
62572;SDS011;48626;51.678;5.806;2023-04-03T08:00:38;8.80;;;2.67;;
62572;SDS011;48626;51.678;5.806;2023-04-03T08:03:04;7.60;;;2.67;;
62572;SDS011;48626;51.678;5.806;2023-04-03T08:05:31;8.25;;;2.75;;
62572;SDS011;48626;51.678;5.806;2023-04-03T08:08:01;7.18;;;2.70;;
62572;SDS011;48626;51.678;5.806;2023-04-03T08:10:27;4.82;;;2.28;;
62572;SDS011;48626;51.678;5.806;2023-04-03T08:12:55;4.45;;;2.50;;
62572;SDS011;48626;51.678;5.806;2023-04-03T08:15:21;8.43;;;2.90;;
62572;SDS011;48626;51.678;5.806;2023-04-03T08:17:47;5.60;;;2.88;;
62572;SDS011;48626;51.678;5.806;2023-04-03T08:20:12;4.97;;;2.28;;
62572;SDS011;48626;51.678;5.806;2023-04-03T08:22:38;11.38;;;2.80;;
62572;SDS011;48626;51.678;5.806;2023-04-03T08:25:04;5.93;;;2.65;;
62572;SDS011;48626;51.678;5.806;2023-04-03T08:27:30;8.00;;;2.60;;
62572;SDS011;48626;51.678;5.806;2023-04-03T08:29:56;4.75;;;2.40;;
62572;SDS011;48626;51.678;5.806;2023-04-03T08:32:22;5.60;;;2.00;;
62572;SDS011;48626;51.678;5.806;2023-04-03T08:34:48;4.85;;;2.35;;
62572;SDS011;48626;51.678;5.806;2023-04-03T08:37:13;7.10;;;2.33;;
62572;SDS011;48626;51.678;5.806;2023-04-03T08:39:41;4.97;;;2.25;;
62572;SDS011;48626;51.678;5.806;2023-04-03T08:42:14;4.35;;;2.22;;
62572;SDS011;48626;51.678;5.806;2023-04-03T08:47:49;3.90;;;2.00;;
62572;SDS011;48626;51.678;5.806;2023-04-03T08:51:23;5.32;;;2.05;;
62572;SDS011;48626;51.678;5.806;2023-04-03T08:53:25;7.40;;;2.30;;
62572;SDS011;48626;51.678;5.806;2023-04-03T08:55:54;3.97;;;1.98;;
62572;SDS011;48626;51.678;5.806;2023-04-03T08:58:21;5.20;;;2.03;;
62572;SDS011;48626;51.678;5.806;2023-04-03T09:00:50;3.63;;;1.77;;
62572;SDS011;48626;51.678;5.806;2023-04-03T09:03:19;6.88;;;2.13;;
62572;SDS011;48626;51.678;5.806;2023-04-03T09:11:52;4.85;;;2.17;;
62572;SDS011;48626;51.678;5.806;2023-04-03T09:23:21;5.95;;;1.83;;
62572;SDS011;48626;51.678;5.806;2023-04-03T09:25:53;3.33;;;2.10;;
62572;SDS011;48626;51.678;5.806;2023-04-03T09:28:35;4.20;;;1.98;;
62572;SDS011;48626;51.678;5.806;2023-04-03T09:31:14;7.25;;;2.28;;
62572;SDS011;48626;51.678;5.806;2023-04-03T09:41:59;2.97;;;1.40;;
62572;SDS011;48626;51.678;5.806;2023-04-03T09:44:30;3.67;;;1.60;;
62572;SDS011;48626;51.678;5.806;2023-04-03T09:46:59;2.75;;;1.70;;
62572;SDS011;48626;51.678;5.806;2023-04-03T09:49:42;2.80;;;1.70;;
62572;SDS011;48626;51.678;5.806;2023-04-03T09:52:24;7.32;;;1.75;;
62572;SDS011;48626;51.678;5.806;2023-04-03T09:54:51;2.30;;;1.80;;
62572;SDS011;48626;51.678;5.806;2023-04-03T09:57:17;3.78;;;1.30;;
62572;SDS011;48626;51.678;5.806;2023-04-03T09:59:47;2.85;;;1.88;;
62572;SDS011;48626;51.678;5.806;2023-04-03T10:02:36;4.20;;;1.25;;
62572;SDS011;48626;51.678;5.806;2023-04-03T10:05:05;1.55;;;1.20;;
62572;SDS011;48626;51.678;5.806;2023-04-03T10:10:36;3.50;;;1.40;;
62572;SDS011;48626;51.678;5.806;2023-04-03T10:13:11;2.55;;;1.20;;
62572;SDS011;48626;51.678;5.806;2023-04-03T10:18:40;5.63;;;1.30;;
62572;SDS011;48626;51.678;5.806;2023-04-03T10:21:15;2.88;;;1.60;;
62572;SDS011;48626;51.678;5.806;2023-04-03T10:32:11;1.60;;;1.30;;
62572;SDS011;48626;51.678;5.806;2023-04-03T10:35:06;2.15;;;1.60;;
62572;SDS011;48626;51.678;5.806;2023-04-03T10:40:24;1.83;;;1.30;;
62572;SDS011;48626;51.678;5.806;2023-04-03T10:48:33;2.40;;;1.38;;
62572;SDS011;48626;51.678;5.806;2023-04-03T10:51:16;1.88;;;1.50;;
62572;SDS011;48626;51.678;5.806;2023-04-03T10:58:58;2.55;;;1.58;;
62572;SDS011;48626;51.678;5.806;2023-04-03T11:01:39;4.72;;;1.65;;
62572;SDS011;48626;51.678;5.806;2023-04-03T11:04:09;2.20;;;1.50;;
62572;SDS011;48626;51.678;5.806;2023-04-03T11:06:41;2.40;;;1.55;;
62572;SDS011;48626;51.678;5.806;2023-04-03T11:09:19;8.07;;;1.70;;
62572;SDS011;48626;51.678;5.806;2023-04-03T11:11:51;3.38;;;1.80;;
62572;SDS011;48626;51.678;5.806;2023-04-03T11:14:37;2.58;;;1.60;;
62572;SDS011;48626;51.678;5.806;2023-04-03T11:22:24;6.78;;;2.20;;
62572;SDS011;48626;51.678;5.806;2023-04-03T11:35:51;4.47;;;1.90;;
62572;SDS011;48626;51.678;5.806;2023-04-03T11:40:49;4.78;;;1.90;;
62572;SDS011;48626;51.678;5.806;2023-04-03T11:43:23;3.58;;;1.88;;
62572;SDS011;48626;51.678;5.806;2023-04-03T11:45:53;3.15;;;1.90;;
62572;SDS011;48626;51.678;5.806;2023-04-03T11:50:57;3.40;;;1.90;;
62572;SDS011;48626;51.678;5.806;2023-04-03T11:53:34;3.95;;;2.08;;
62572;SDS011;48626;51.678;5.806;2023-04-03T11:56:02;4.13;;;2.30;;
62572;SDS011;48626;51.678;5.806;2023-04-03T11:58:30;3.13;;;2.00;;
62572;SDS011;48626;51.678;5.806;2023-04-03T12:01:09;4.15;;;2.00;;
62572;SDS011;48626;51.678;5.806;2023-04-03T12:21:22;2.72;;;1.92;;
62572;SDS011;48626;51.678;5.806;2023-04-03T12:34:58;5.68;;;2.15;;
62572;SDS011;48626;51.678;5.806;2023-04-03T12:46:03;4.07;;;2.30;;
62572;SDS011;48626;51.678;5.806;2023-04-03T12:48:38;5.60;;;2.00;;
62572;SDS011;48626;51.678;5.806;2023-04-03T12:51:20;2.70;;;1.83;;
62572;SDS011;48626;51.678;5.806;2023-04-03T12:54:03;2.85;;;1.80;;
62572;SDS011;48626;51.678;5.806;2023-04-03T12:56:38;4.78;;;2.30;;
62572;SDS011;48626;51.678;5.806;2023-04-03T13:01:52;5.90;;;2.40;;
62572;SDS011;48626;51.678;5.806;2023-04-03T13:04:20;5.30;;;2.30;;
62572;SDS011;48626;51.678;5.806;2023-04-03T13:06:46;7.30;;;2.20;;
62572;SDS011;48626;51.678;5.806;2023-04-03T13:09:25;4.28;;;2.40;;
62572;SDS011;48626;51.678;5.806;2023-04-03T13:12:10;5.30;;;2.38;;
62572;SDS011;48626;51.678;5.806;2023-04-03T13:14:38;3.95;;;2.10;;
62572;SDS011;48626;51.678;5.806;2023-04-03T13:17:16;3.83;;;2.25;;
62572;SDS011;48626;51.678;5.806;2023-04-03T13:19:42;6.05;;;2.30;;
62572;SDS011;48626;51.678;5.806;2023-04-03T13:24:49;4.38;;;2.40;;
62572;SDS011;48626;51.678;5.806;2023-04-03T13:27:16;4.28;;;2.20;;
62572;SDS011;48626;51.678;5.806;2023-04-03T13:29:43;4.32;;;2.20;;
62572;SDS011;48626;51.678;5.806;2023-04-03T13:32:19;6.43;;;2.17;;
62572;SDS011;48626;51.678;5.806;2023-04-03T13:34:47;4.63;;;2.20;;
62572;SDS011;48626;51.678;5.806;2023-04-03T13:39:57;5.03;;;2.30;;
62572;SDS011;48626;51.678;5.806;2023-04-03T13:42:36;4.72;;;2.28;;
62572;SDS011;48626;51.678;5.806;2023-04-03T13:47:38;3.95;;;2.10;;
62572;SDS011;48626;51.678;5.806;2023-04-03T13:55:25;3.42;;;2.05;;
62572;SDS011;48626;51.678;5.806;2023-04-03T13:58:03;5.70;;;2.30;;
62572;SDS011;48626;51.678;5.806;2023-04-03T14:03:23;4.57;;;2.20;;
62572;SDS011;48626;51.678;5.806;2023-04-03T14:06:15;3.25;;;2.25;;
62572;SDS011;48626;51.678;5.806;2023-04-03T14:08:43;3.90;;;2.30;;
62572;SDS011;48626;51.678;5.806;2023-04-03T14:11:14;7.50;;;2.30;;
62572;SDS011;48626;51.678;5.806;2023-04-03T14:14:00;3.60;;;2.10;;
62572;SDS011;48626;51.678;5.806;2023-04-03T14:16:31;4.97;;;2.40;;
62572;SDS011;48626;51.678;5.806;2023-04-03T14:19:02;7.22;;;2.45;;
62572;SDS011;48626;51.678;5.806;2023-04-03T14:21:28;4.07;;;2.10;;
62572;SDS011;48626;51.678;5.806;2023-04-03T14:23:54;4.50;;;2.30;;
62572;SDS011;48626;51.678;5.806;2023-04-03T14:26:22;4.35;;;2.30;;
62572;SDS011;48626;51.678;5.806;2023-04-03T14:28:50;3.53;;;2.00;;
62572;SDS011;48626;51.678;5.806;2023-04-03T14:31:17;5.07;;;2.13;;
62572;SDS011;48626;51.678;5.806;2023-04-03T14:33:44;5.18;;;2.38;;
62572;SDS011;48626;51.678;5.806;2023-04-03T14:36:14;5.22;;;2.20;;
62572;SDS011;48626;51.678;5.806;2023-04-03T14:38:42;5.00;;;2.47;;
62572;SDS011;48626;51.678;5.806;2023-04-03T14:41:13;5.03;;;2.08;;
62572;SDS011;48626;51.678;5.806;2023-04-03T14:43:40;5.82;;;2.00;;
62572;SDS011;48626;51.678;5.806;2023-04-03T14:46:12;5.45;;;2.22;;
62572;SDS011;48626;51.678;5.806;2023-04-03T14:48:51;5.22;;;2.33;;
62572;SDS011;48626;51.678;5.806;2023-04-03T14:51:17;4.15;;;2.20;;
62572;SDS011;48626;51.678;5.806;2023-04-03T14:53:43;5.28;;;2.30;;
62572;SDS011;48626;51.678;5.806;2023-04-03T14:56:18;4.30;;;2.03;;
62572;SDS011;48626;51.678;5.806;2023-04-03T14:58:48;5.03;;;2.20;;
62572;SDS011;48626;51.678;5.806;2023-04-03T15:01:16;5.00;;;2.20;;
62572;SDS011;48626;51.678;5.806;2023-04-03T15:03:42;6.70;;;2.67;;
62572;SDS011;48626;51.678;5.806;2023-04-03T15:06:11;4.72;;;2.13;;
62572;SDS011;48626;51.678;5.806;2023-04-03T15:08:38;3.97;;;2.08;;
62572;SDS011;48626;51.678;5.806;2023-04-03T15:11:06;7.38;;;2.50;;
62572;SDS011;48626;51.678;5.806;2023-04-03T15:13:33;5.25;;;2.08;;
62572;SDS011;48626;51.678;5.806;2023-04-03T15:15:59;4.57;;;1.90;;
62572;SDS011;48626;51.678;5.806;2023-04-03T15:18:25;6.40;;;2.28;;
62572;SDS011;48626;51.678;5.806;2023-04-03T15:20:55;4.97;;;2.00;;
62572;SDS011;48626;51.678;5.806;2023-04-03T15:23:22;5.32;;;2.20;;
62572;SDS011;48626;51.678;5.806;2023-04-03T15:25:51;8.88;;;2.40;;
62572;SDS011;48626;51.678;5.806;2023-04-03T15:30:58;4.05;;;2.00;;
62572;SDS011;48626;51.678;5.806;2023-04-03T15:33:24;6.15;;;2.40;;
62572;SDS011;48626;51.678;5.806;2023-04-03T15:35:51;5.30;;;3.08;;
62572;SDS011;48626;51.678;5.806;2023-04-03T15:38:16;11.82;;;2.67;;
62572;SDS011;48626;51.678;5.806;2023-04-03T15:40:42;5.03;;;2.25;;
62572;SDS011;48626;51.678;5.806;2023-04-03T15:43:09;3.90;;;2.03;;
62572;SDS011;48626;51.678;5.806;2023-04-03T15:45:35;7.80;;;2.47;;
62572;SDS011;48626;51.678;5.806;2023-04-03T15:48:03;3.72;;;1.95;;
62572;SDS011;48626;51.678;5.806;2023-04-03T15:50:30;6.60;;;2.85;;
62572;SDS011;48626;51.678;5.806;2023-04-03T15:52:57;5.53;;;2.22;;
62572;SDS011;48626;51.678;5.806;2023-04-03T15:55:26;7.63;;;2.40;;
62572;SDS011;48626;51.678;5.806;2023-04-03T15:57:54;7.65;;;2.00;;
62572;SDS011;48626;51.678;5.806;2023-04-03T16:00:21;3.58;;;2.17;;
62572;SDS011;48626;51.678;5.806;2023-04-03T16:02:50;7.40;;;2.20;;
62572;SDS011;48626;51.678;5.806;2023-04-03T16:05:18;4.73;;;2.47;;
62572;SDS011;48626;51.678;5.806;2023-04-03T16:07:45;4.68;;;2.20;;
62572;SDS011;48626;51.678;5.806;2023-04-03T16:10:12;4.78;;;2.10;;
62572;SDS011;48626;51.678;5.806;2023-04-03T16:12:39;4.70;;;2.33;;
62572;SDS011;48626;51.678;5.806;2023-04-03T16:15:05;4.45;;;2.10;;
62572;SDS011;48626;51.678;5.806;2023-04-03T16:17:32;3.65;;;1.80;;
62572;SDS011;48626;51.678;5.806;2023-04-03T16:19:59;5.53;;;2.30;;
62572;SDS011;48626;51.678;5.806;2023-04-03T16:22:26;7.60;;;3.60;;
62572;SDS011;48626;51.678;5.806;2023-04-03T16:24:53;4.25;;;1.95;;
62572;SDS011;48626;51.678;5.806;2023-04-03T16:27:19;4.88;;;2.30;;
62572;SDS011;48626;51.678;5.806;2023-04-03T16:29:45;6.10;;;2.13;;
62572;SDS011;48626;51.678;5.806;2023-04-03T16:32:11;3.92;;;1.92;;
62572;SDS011;48626;51.678;5.806;2023-04-03T16:34:37;5.20;;;2.15;;
62572;SDS011;48626;51.678;5.806;2023-04-03T16:37:05;4.32;;;2.60;;
62572;SDS011;48626;51.678;5.806;2023-04-03T16:39:33;5.72;;;2.30;;
62572;SDS011;48626;51.678;5.806;2023-04-03T16:42:00;3.08;;;2.10;;
62572;SDS011;48626;51.678;5.806;2023-04-03T16:44:26;4.70;;;2.10;;
62572;SDS011;48626;51.678;5.806;2023-04-03T16:46:52;3.70;;;2.00;;
62572;SDS011;48626;51.678;5.806;2023-04-03T16:49:17;7.07;;;2.33;;
62572;SDS011;48626;51.678;5.806;2023-04-03T16:51:43;6.03;;;2.47;;
62572;SDS011;48626;51.678;5.806;2023-04-03T16:54:10;6.15;;;2.67;;
62572;SDS011;48626;51.678;5.806;2023-04-03T16:56:38;4.85;;;2.35;;
62572;SDS011;48626;51.678;5.806;2023-04-03T16:59:07;6.18;;;2.50;;
62572;SDS011;48626;51.678;5.806;2023-04-03T17:01:33;3.97;;;2.30;;
62572;SDS011;48626;51.678;5.806;2023-04-03T17:03:59;7.35;;;2.65;;
62572;SDS011;48626;51.678;5.806;2023-04-03T17:06:25;4.97;;;2.30;;
62572;SDS011;48626;51.678;5.806;2023-04-03T17:08:51;5.13;;;2.50;;
62572;SDS011;48626;51.678;5.806;2023-04-03T17:11:17;9.30;;;2.30;;
62572;SDS011;48626;51.678;5.806;2023-04-03T17:13:43;5.13;;;2.10;;
62572;SDS011;48626;51.678;5.806;2023-04-03T17:16:10;6.63;;;2.10;;
62572;SDS011;48626;51.678;5.806;2023-04-03T17:18:39;4.68;;;2.10;;
62572;SDS011;48626;51.678;5.806;2023-04-03T17:21:06;5.47;;;2.42;;